Airfield :
LOGIN :

Register | Disclaimer

   EN    FR    IT 

 










Legend :    VFR   Marginal VFR   IFR   Intensive IFR   Very Intensive IFR
Visi :
Ceiling :
>= 8 km
>= 3000ft
5 to 8 km
1000 to 3000 ft
1500m to 5 km
500 to 1000 ft
800 to 1500m
200 to 500 ft
< 800m
< 200 ft
Symbols :   Thunderstorms  Fog  Heavy snow  Heavy precipitations  Wind > 20 kt
SIGMETs :     Misc.  Thunderstorms  Icing  Turbulence  Mountain Waves  Volcanic Ashes






- Airport Elevation : -13 ft
- IATA code : LEY


EHLE - Lelystad

CURRENT METAR :
  • 231625Z AUTO 17006KT 9999 NSC 10/09 Q1026 NOSIG

EXPIRED METARs :
  • 231555Z AUTO 17006KT 9999 NSC 11/09 Q1026 NOSIG
  • 231525Z AUTO 18006KT 9999 NSC 11/09 Q1027 NOSIG
  • 231455Z AUTO 19006KT 9999 NSC 11/09 Q1026 NOSIG
  • 231425Z AUTO 20006KT 9999 FEW028 BKN040 BKN045 11/08 Q1026 NOSIG
  • 231355Z AUTO 19007KT 160V230 9999 FEW034 11/08 Q1027 NOSIG

TAF TAF EHLE
Valid from the 23 at 12:00 until the 24 at 18:00 UTC


231105Z 2312/2418 18007KT 9999 SCT040



MET'MAP, your aeronautical weather chart ! - Copyright ORBIFLY December 2007 - Disclaimer

ORBIFLY MET'MAP TEAM :

Programming & Development : Alexandra Zaïnal
Concept & original design : Baudouin d'Aumeries
Assistance for programming : Marc-Olivier Méhu
Technical & hardware support : Manuel Goepfert

Contact : metmap@orbifly.com




SOURCES & CREDITS :

   NOAA